Time;durP1;ratioP1;P1;durP2;ratioP2;P2;SDS_P1;SDS_P2;PMS_P1;PMS_P2;Temp;Humidity;BMP_temperature;BMP_pressure;BME280_temperature;BME280_humidity;BME280_pressure;Samples;Min_cycle;Max_cycle;Signal;HPM_P1;HPM_P2
2021/01/05 00:00:50;;;;;;;10.60;6.93;;;3.90;90.40;;;;;;5092399;28;20379;-74
2021/01/05 00:03:16;;;;;;;10.37;5.90;;;3.90;90.40;;;;;;5092257;28;20028;-75
2021/01/05 00:05:42;;;;;;;9.43;5.70;;;3.90;90.40;;;;;;5058970;28;20028;-74
2021/01/05 00:08:08;;;;;;;9.87;6.27;;;3.90;90.40;;;;;;5075402;28;20131;-75
2021/01/05 00:10:33;;;;;;;9.43;5.83;;;3.90;90.40;;;;;;5091899;28;20021;-75
2021/01/05 00:12:59;;;;;;;10.70;5.93;;;3.90;90.40;;;;;;5075356;28;20035;-75
2021/01/05 00:15:24;;;;;;;11.23;6.70;;;3.90;90.50;;;;;;5092102;28;20027;-75
2021/01/05 00:17:50;;;;;;;10.10;6.03;;;3.90;90.50;;;;;;5058387;28;20024;-74
2021/01/05 00:20:22;;;;;;;12.50;6.93;;;3.90;90.50;;;;;;5092260;28;20036;-75
2021/01/05 00:22:49;;;;;;;10.87;6.60;;;3.90;90.40;;;;;;5092180;28;20471;-75
2021/01/05 00:25:17;;;;;;;9.90;6.00;;;3.90;90.40;;;;;;5093752;28;20032;-74
2021/01/05 00:27:43;;;;;;;9.47;6.03;;;3.90;90.40;;;;;;5097560;28;20103;-75
2021/01/05 00:30:18;;;;;;;12.07;7.30;;;3.90;90.40;;;;;;5096134;28;20511;-75
2021/01/05 00:32:45;;;;;;;12.30;7.23;;;3.90;90.40;;;;;;5096195;28;20035;-75
2021/01/05 00:35:14;;;;;;;11.03;6.57;;;4.00;90.30;;;;;;5097419;28;20357;-74
2021/01/05 00:37:40;;;;;;;12.90;6.73;;;3.90;90.40;;;;;;5096645;28;20028;-75
2021/01/05 00:40:07;;;;;;;11.70;6.40;;;3.90;90.30;;;;;;5079162;28;20032;-75
2021/01/05 00:42:33;;;;;;;12.13;7.47;;;3.90;90.30;;;;;;5096017;28;20024;-75
2021/01/05 00:44:59;;;;;;;12.70;7.50;;;3.90;90.20;;;;;;5096328;28;20558;-74
2021/01/05 00:47:25;;;;;;;13.60;7.83;;;3.90;90.20;;;;;;5078774;28;20079;-79
2021/01/05 00:49:50;;;;;;;15.47;8.00;;;3.90;90.10;;;;;;5095751;28;20030;-79
2021/01/05 00:52:16;;;;;;;13.60;7.63;;;3.90;90.20;;;;;;5095924;28;20024;-80
2021/01/05 00:54:42;;;;;;;14.43;7.87;;;3.90;90.20;;;;;;5095638;28;20058;-79
2021/01/05 00:57:10;;;;;;;12.87;7.43;;;3.90;90.10;;;;;;5078668;28;20032;-79
2021/01/05 00:59:36;;;;;;;13.20;7.63;;;3.90;90.20;;;;;;5095659;28;20016;-79
2021/01/05 01:02:04;;;;;;;12.00;6.93;;;3.90;90.20;;;;;;5095597;28;20110;-79
2021/01/05 01:04:30;;;;;;;13.13;7.63;;;3.90;90.20;;;;;;5095575;28;20039;-78
2021/01/05 01:06:56;;;;;;;13.40;7.47;;;3.90;90.10;;;;;;5095326;28;20099;-79
2021/01/05 01:09:22;;;;;;;13.13;7.70;;;3.90;90.10;;;;;;5078592;28;20024;-79
2021/01/05 01:12:13;;;;;;;14.40;7.60;;;3.90;90.30;;;;;;5095518;28;20058;-79
2021/01/05 01:14:41;;;;;;;13.07;7.83;;;3.90;90.20;;;;;;5095258;28;20023;-80
2021/01/05 01:17:07;;;;;;;12.70;7.03;;;3.90;90.20;;;;;;5078417;28;20032;-79
2021/01/05 01:19:33;;;;;;;13.63;7.67;;;3.90;90.20;;;;;;5078356;28;20577;-79
2021/01/05 01:21:59;;;;;;;14.27;8.47;;;3.90;90.40;;;;;;5078531;28;20031;-79
2021/01/05 01:24:25;;;;;;;16.20;8.27;;;3.90;90.30;;;;;;5095110;28;20111;-79
2021/01/05 01:26:52;;;;;;;12.87;7.83;;;3.90;90.40;;;;;;5078167;28;20024;-80
2021/01/05 01:29:20;;;;;;;15.20;8.17;;;3.90;90.40;;;;;;5095044;28;20376;-79
2021/01/05 01:31:46;;;;;;;13.90;8.07;;;3.90;90.40;;;;;;5096185;28;20028;-79
2021/01/05 01:34:15;;;;;;;15.60;8.33;;;3.90;90.30;;;;;;5094892;28;20483;-79
2021/01/05 01:36:41;;;;;;;15.37;8.63;;;3.90;90.30;;;;;;5093827;28;20019;-79
2021/01/05 01:39:07;;;;;;;14.50;8.20;;;3.90;90.30;;;;;;5077987;28;20379;-79
2021/01/05 01:41:33;;;;;;;12.83;7.03;;;3.90;90.40;;;;;;5078007;28;20096;-79
2021/01/05 01:44:00;;;;;;;12.10;6.77;;;3.90;90.40;;;;;;5094998;28;20441;-80
2021/01/05 01:46:31;;;;;;;12.37;7.43;;;3.80;90.30;;;;;;5094762;28;20016;-79
2021/01/05 01:48:56;;;;;;;14.13;8.17;;;3.90;90.30;;;;;;5095737;28;20048;-79
2021/01/05 01:51:22;;;;;;;12.37;7.23;;;3.80;90.30;;;;;;5077680;28;20031;-78
2021/01/05 01:54:00;;;;;;;14.83;7.73;;;3.80;90.30;;;;;;5096019;28;20076;-79
2021/01/05 01:56:50;;;;;;;15.70;8.70;;;3.80;90.30;;;;;;5094419;28;20028;-79
2021/01/05 01:59:40;;;;;;;12.57;7.33;;;3.80;90.30;;;;;;5095787;28;20040;-79
2021/01/05 02:02:11;;;;;;;13.67;7.80;;;3.80;90.30;;;;;;5095745;28;20121;-79
2021/01/05 02:04:49;;;;;;;15.70;7.73;;;3.80;90.40;;;;;;5095693;28;20024;-79
2021/01/05 02:07:35;;;;;;;13.20;7.47;;;3.80;90.40;;;;;;5094502;28;20383;-79
2021/01/05 02:10:22;;;;;;;14.23;8.47;;;3.90;90.40;;;;;;5094216;28;20024;-79
2021/01/05 02:13:24;;;;;;;13.50;7.57;;;3.80;90.30;;;;;;5094218;28;20122;-79
2021/01/05 02:16:18;;;;;;;12.37;7.10;;;3.90;90.40;;;;;;5094183;28;20055;-79
2021/01/05 02:19:00;;;;;;;10.63;6.00;;;3.90;90.40;;;;;;5095333;28;20024;-79
2021/01/05 02:21:32;;;;;;;12.27;7.17;;;3.90;90.40;;;;;;5094010;28;20622;-79
2021/01/05 02:24:21;;;;;;;14.43;8.27;;;3.80;90.40;;;;;;5093965;28;20028;-79
2021/01/05 02:26:53;;;;;;;14.30;7.80;;;3.80;90.40;;;;;;5095255;28;20027;-79
2021/01/05 02:29:31;;;;;;;14.63;8.43;;;3.80;90.50;;;;;;5093895;28;20555;-79
2021/01/05 02:32:32;;;;;;;15.17;8.33;;;3.80;90.50;;;;;;5095328;28;20039;-79
2021/01/05 02:35:14;;;;;;;14.93;7.70;;;3.80;90.60;;;;;;5088124;28;20028;-79
2021/01/05 02:38:01;;;;;;;13.37;7.80;;;3.90;90.60;;;;;;5093695;28;20031;-79
2021/01/05 02:41:04;;;;;;;16.57;7.93;;;3.80;90.60;;;;;;5094924;28;20476;-79
2021/01/05 02:43:55;;;;;;;14.03;8.10;;;3.80;90.70;;;;;;5093557;28;20042;-79
2021/01/05 02:46:21;;;;;;;14.20;7.07;;;3.90;90.60;;;;;;5094864;28;20035;-79
2021/01/05 02:49:03;;;;;;;17.60;8.90;;;3.90;90.60;;;;;;5094497;28;20411;-79
2021/01/05 02:51:36;;;;;;;14.07;8.47;;;3.90;90.60;;;;;;5093445;28;20032;-80
2021/01/05 02:54:24;;;;;;;15.23;8.48;;;3.90;90.60;;;;;;5093780;28;20064;-79
2021/01/05 02:57:27;;;;;;;16.17;8.50;;;3.90;90.50;;;;;;5093371;28;20024;-79
2021/01/05 03:00:19;;;;;;;14.90;7.77;;;3.90;90.50;;;;;;5094678;28;20059;-74
2021/01/05 03:02:44;;;;;;;13.97;7.53;;;3.90;90.60;;;;;;5093078;28;20028;-75
2021/01/05 03:05:10;;;;;;;13.37;7.63;;;3.90;90.40;;;;;;5093032;28;20032;-75
2021/01/05 03:07:36;;;;;;;15.00;8.23;;;3.90;90.40;;;;;;5076277;28;20056;-74
2021/01/05 03:10:24;;;;;;;16.53;9.47;;;3.90;90.40;;;;;;5059589;28;20123;-76
2021/01/05 03:13:11;;;;;;;15.93;8.90;;;3.90;90.30;;;;;;5093109;28;20395;-75
2021/01/05 03:15:59;;;;;;;15.47;8.33;;;3.90;90.30;;;;;;5093116;28;20024;-75
2021/01/05 03:18:43;;;;;;;16.87;9.17;;;3.90;90.30;;;;;;5092910;28;20027;-75
2021/01/05 03:21:37;;;;;;;15.05;8.32;;;3.90;90.30;;;;;;5093284;28;20028;-75
2021/01/05 03:24:05;;;;;;;15.50;8.43;;;3.90;90.30;;;;;;5094235;28;20020;-75
2021/01/05 03:26:43;;;;;;;14.50;9.07;;;3.90;90.30;;;;;;5094142;28;20024;-75
2021/01/05 03:29:11;;;;;;;15.57;9.33;;;3.90;90.40;;;;;;5092654;28;20024;-75
2021/01/05 03:31:59;;;;;;;14.07;7.97;;;4.00;90.30;;;;;;5076038;28;20097;-75
2021/01/05 03:34:24;;;;;;;17.43;10.13;;;3.90;90.30;;;;;;5092768;28;20028;-75
2021/01/05 03:36:50;;;;;;;16.33;9.83;;;4.00;90.30;;;;;;5076249;28;20032;-75
2021/01/05 03:39:16;;;;;;;15.40;9.40;;;4.10;90.10;;;;;;5075783;28;20028;-75
2021/01/05 03:41:41;;;;;;;17.73;9.73;;;4.00;90.10;;;;;;5075740;28;20081;-75
2021/01/05 03:44:07;;;;;;;15.83;9.03;;;3.90;90.10;;;;;;5075824;28;20475;-75
2021/01/05 03:46:33;;;;;;;15.03;8.77;;;4.00;90.20;;;;;;5092619;28;20024;-75
2021/01/05 03:48:59;;;;;;;16.47;8.60;;;4.00;90.20;;;;;;5092769;28;20106;-75
2021/01/05 03:51:24;;;;;;;14.80;8.83;;;4.00;90.20;;;;;;5092734;28;20035;-75
2021/01/05 03:53:50;;;;;;;17.90;9.93;;;3.90;90.20;;;;;;5092772;28;20028;-75
2021/01/05 03:56:16;;;;;;;18.37;10.37;;;3.90;90.20;;;;;;5093606;28;20099;-75
2021/01/05 03:58:41;;;;;;;17.43;9.53;;;3.90;90.20;;;;;;5092690;28;20029;-75
2021/01/05 04:01:07;;;;;;;16.33;9.47;;;3.90;90.20;;;;;;5093283;28;20085;-74
2021/01/05 04:03:33;;;;;;;17.27;9.83;;;3.90;90.20;;;;;;5093584;28;20035;-75
2021/01/05 04:05:59;;;;;;;16.87;9.33;;;4.00;90.50;;;;;;5093515;28;20138;-75
2021/01/05 04:08:27;;;;;;;17.73;10.23;;;4.00;90.30;;;;;;5092640;28;20107;-74
2021/01/05 04:10:53;;;;;;;18.67;10.47;;;4.00;90.30;;;;;;5092319;28;20036;-75
2021/01/05 04:13:18;;;;;;;19.53;11.40;;;4.00;90.30;;;;;;5092320;28;20086;-75
2021/01/05 04:15:44;;;;;;;20.17;10.50;;;4.00;90.30;;;;;;5075563;28;20028;-75
2021/01/05 04:18:10;;;;;;;17.43;9.60;;;4.00;90.30;;;;;;5075440;28;20026;-75
2021/01/05 04:20:36;;;;;;;17.47;10.17;;;4.00;90.30;;;;;;5075433;28;20097;-74
2021/01/05 04:23:01;;;;;;;18.03;9.63;;;4.00;90.30;;;;;;5093325;28;20433;-75
2021/01/05 04:25:27;;;;;;;18.03;10.03;;;4.00;90.40;;;;;;5075247;28;20024;-75
2021/01/05 04:27:54;;;;;;;17.23;10.03;;;4.00;90.40;;;;;;5091972;28;20069;-75
2021/01/05 04:30:24;;;;;;;19.80;10.67;;;4.00;90.40;;;;;;5093173;28;20193;-75
2021/01/05 04:32:52;;;;;;;19.73;10.00;;;3.90;90.40;;;;;;5091904;28;20464;-75
2021/01/05 04:35:20;;;;;;;18.63;9.83;;;3.90;90.40;;;;;;5092247;28;20026;-74
2021/01/05 04:37:45;;;;;;;17.37;10.13;;;3.90;90.50;;;;;;5092006;28;20025;-74
2021/01/05 04:40:42;;;;;;;18.60;10.00;;;3.90;90.40;;;;;;5092091;28;20026;-75
2021/01/05 04:43:36;;;;;;;21.90;11.47;;;3.90;90.50;;;;;;5091916;28;20115;-74
2021/01/05 04:46:19;;;;;;;20.90;11.50;;;3.90;90.50;;;;;;5092491;28;20383;-76
2021/01/05 04:48:59;;;;;;;21.10;10.70;;;3.90;90.50;;;;;;5093476;28;20491;-75
2021/01/05 04:51:46;;;;;;;17.73;9.27;;;3.90;90.50;;;;;;5091739;28;20097;-75
2021/01/05 04:54:30;;;;;;;19.40;10.80;;;3.90;90.60;;;;;;5091705;28;20442;-79
2021/01/05 04:57:08;;;;;;;;;;;3.90;90.60;;;;;;5093502;28;20023;-80
2021/01/05 05:00:01;;;;;;;20.10;10.77;;;4.00;90.60;;;;;;5093104;28;20302;-81
2021/01/05 05:02:29;;;;;;;18.33;10.53;;;3.90;90.60;;;;;;5092377;28;20452;-80
2021/01/05 05:05:35;;;;;;;19.20;10.70;;;4.00;90.60;;;;;;5091706;28;20609;-80
2021/01/05 05:08:12;;;;;;;;;;;4.00;90.70;;;;;;5091965;28;20024;-81
2021/01/05 05:10:48;;;;;;;16.70;9.47;;;3.90;90.60;;;;;;5092092;28;20339;-80
2021/01/05 05:13:16;;;;;;;17.43;9.43;;;3.90;90.60;;;;;;5096685;28;20100;-80
2021/01/05 05:16:16;;;;;;;19.00;10.03;;;4.00;90.60;;;;;;5095285;28;20491;-80
2021/01/05 05:19:02;;;;;;;18.87;9.93;;;4.00;90.60;;;;;;5095167;28;20020;-80
2021/01/05 05:21:36;;;;;;;18.43;8.70;;;4.00;90.60;;;;;;5095147;28;20030;-81
2021/01/05 05:24:15;;;;;;;15.13;8.60;;;4.00;90.60;;;;;;5096506;28;20098;-80
2021/01/05 05:26:59;;;;;;;17.50;9.87;;;4.00;90.60;;;;;;5096401;28;20112;-81
2021/01/05 05:29:40;;;;;;;19.40;10.40;;;4.00;90.60;;;;;;5094776;28;20024;-80
2021/01/05 05:32:15;;;;;;;16.33;9.47;;;4.00;90.50;;;;;;5094815;28;20032;-81
2021/01/05 05:35:18;;;;;;;17.57;9.57;;;4.00;90.50;;;;;;5096007;28;20145;-80
2021/01/05 05:38:05;;;;;;;17.40;9.23;;;4.00;90.50;;;;;;5094783;28;20483;-80
2021/01/05 05:41:04;;;;;;;20.60;11.47;;;3.90;90.50;;;;;;5094824;28;20020;-80
2021/01/05 05:43:55;;;;;;;19.47;10.57;;;4.00;90.50;;;;;;5094745;28;20035;-80
2021/01/05 05:46:45;;;;;;;20.83;11.20;;;4.00;90.50;;;;;;5095909;28;20030;-80
2021/01/05 05:49:48;;;;;;;19.63;11.33;;;4.00;90.60;;;;;;5094728;28;20424;-80
2021/01/05 05:52:45;;;;;;;19.30;10.57;;;4.00;90.60;;;;;;5094553;28;20135;-80
2021/01/05 05:55:45;;;;;;;20.23;10.87;;;4.00;90.60;;;;;;5095835;28;20081;-81
2021/01/05 05:58:15;;;;;;;18.30;9.67;;;3.90;90.60;;;;;;5095854;28;20024;-75
2021/01/05 06:00:47;;;;;;;17.27;10.13;;;3.90;90.60;;;;;;5092584;28;20028;-76
2021/01/05 06:03:15;;;;;;;18.03;9.63;;;3.90;90.60;;;;;;5094273;28;20035;-76
2021/01/05 06:05:41;;;;;;;19.33;10.37;;;3.90;90.60;;;;;;5094386;28;20451;-76
2021/01/05 06:08:08;;;;;;;16.53;9.40;;;3.90;90.70;;;;;;5094506;28;20032;-76
2021/01/05 06:10:34;;;;;;;18.97;10.27;;;3.90;90.70;;;;;;5094313;28;20475;-76
2021/01/05 06:13:00;;;;;;;19.43;10.10;;;3.90;90.70;;;;;;5094259;28;20024;-75
2021/01/05 06:15:26;;;;;;;19.10;10.07;;;4.00;90.70;;;;;;5095150;28;20095;-77
2021/01/05 06:17:52;;;;;;;18.77;9.97;;;3.90;90.70;;;;;;5094277;28;20107;-76
2021/01/05 06:20:18;;;;;;;18.90;9.70;;;3.80;90.70;;;;;;5075616;28;20082;-77
2021/01/05 06:22:45;;;;;;;16.77;8.60;;;3.90;90.80;;;;;;5075034;28;20518;-76
2021/01/05 06:25:13;;;;;;;18.70;9.53;;;3.90;90.80;;;;;;5090956;28;20111;-76
2021/01/05 06:27:39;;;;;;;20.23;10.33;;;4.00;90.70;;;;;;5076647;28;20513;-76
2021/01/05 06:30:06;;;;;;;18.47;9.83;;;4.00;90.70;;;;;;5077048;28;20032;-76
2021/01/05 06:32:31;;;;;;;17.73;9.73;;;4.00;90.60;;;;;;5095175;28;20028;-76
2021/01/05 06:34:57;;;;;;;18.20;9.13;;;4.00;90.60;;;;;;5079189;28;20024;-76
2021/01/05 06:37:23;;;;;;;16.80;9.67;;;4.00;90.60;;;;;;5083137;28;20036;-76
2021/01/05 06:39:48;;;;;;;17.23;9.10;;;4.00;90.60;;;;;;5080588;28;20043;-77
2021/01/05 06:42:15;;;;;;;17.23;9.17;;;4.00;90.60;;;;;;5078873;28;20024;-76
2021/01/05 06:44:42;;;;;;;18.83;10.27;;;4.00;90.50;;;;;;5097093;28;20039;-76
2021/01/05 06:47:08;;;;;;;20.07;9.80;;;4.10;90.50;;;;;;5097480;28;20048;-76
2021/01/05 06:49:34;;;;;;;17.80;9.97;;;4.10;90.40;;;;;;5096702;28;20050;-76
2021/01/05 06:52:00;;;;;;;16.67;8.53;;;4.10;90.40;;;;;;5096044;28;20134;-76
2021/01/05 06:54:25;;;;;;;19.77;9.23;;;4.10;90.40;;;;;;5093540;28;20480;-76
2021/01/05 06:56:55;;;;;;;19.17;10.03;;;4.10;90.40;;;;;;5094161;28;20024;-76
2021/01/05 06:59:23;;;;;;;18.77;9.83;;;4.10;90.40;;;;;;5073359;28;20400;-80
2021/01/05 07:01:54;;;;;;;16.90;9.77;;;4.10;90.40;;;;;;5083561;28;20097;-80
2021/01/05 07:04:20;;;;;;;17.67;9.43;;;4.10;90.40;;;;;;5093494;28;20024;-76
2021/01/05 07:06:46;;;;;;;18.50;10.23;;;4.10;90.50;;;;;;5094915;28;20035;-80
2021/01/05 07:09:13;;;;;;;18.70;10.27;;;4.10;90.50;;;;;;5077310;28;20028;-80
2021/01/05 07:11:39;;;;;;;19.47;10.57;;;4.10;90.50;;;;;;5093511;28;20101;-80
2021/01/05 07:14:05;;;;;;;20.83;10.30;;;4.10;90.40;;;;;;5073112;28;20033;-80
2021/01/05 07:16:30;;;;;;;20.20;10.77;;;4.10;90.40;;;;;;5073142;28;20488;-80
2021/01/05 07:18:56;;;;;;;20.77;10.60;;;4.10;90.50;;;;;;5072877;28;20028;-80
2021/01/05 07:21:21;;;;;;;19.23;10.37;;;4.10;90.50;;;;;;5072798;28;20030;-80
2021/01/05 07:23:47;;;;;;;18.87;11.00;;;4.10;90.50;;;;;;5056245;28;20119;-81
2021/01/05 07:26:13;;;;;;;20.23;11.07;;;4.10;90.40;;;;;;5073084;28;20032;-80
2021/01/05 07:28:39;;;;;;;19.83;10.57;;;4.20;90.40;;;;;;5056529;28;20067;-79
2021/01/05 07:31:05;;;;;;;19.67;10.37;;;4.20;90.40;;;;;;5073094;28;20032;-80
2021/01/05 07:33:31;;;;;;;22.90;10.37;;;4.20;90.40;;;;;;5072656;28;20032;-80
2021/01/05 07:35:57;;;;;;;19.37;10.43;;;4.20;90.40;;;;;;5055359;28;20050;-80
2021/01/05 07:38:23;;;;;;;21.27;10.90;;;4.20;90.40;;;;;;5073778;28;20028;-80
2021/01/05 07:40:48;;;;;;;20.93;10.57;;;4.20;90.40;;;;;;5073776;28;20538;-80
2021/01/05 07:43:14;;;;;;;19.73;11.40;;;4.20;90.40;;;;;;5073915;28;20099;-81
2021/01/05 07:45:40;;;;;;;20.57;10.73;;;4.30;90.50;;;;;;5073831;28;20033;-80
2021/01/05 07:48:06;;;;;;;19.23;10.93;;;4.20;90.40;;;;;;5072513;28;20540;-84
2021/01/05 07:50:31;;;;;;;21.30;12.03;;;4.20;90.40;;;;;;5072411;28;20429;-82
2021/01/05 07:52:58;;;;;;;22.33;12.60;;;4.20;90.40;;;;;;5073690;28;20096;-83
2021/01/05 07:55:25;;;;;;;23.20;11.90;;;4.20;90.30;;;;;;5072706;28;20445;-83
2021/01/05 07:57:53;;;;;;;22.83;12.93;;;4.20;90.40;;;;;;5092750;28;20012;-83
2021/01/05 08:00:21;;;;;;;21.33;11.40;;;4.20;90.40;;;;;;5093507;28;20024;-83
2021/01/05 08:02:47;;;;;;;23.23;12.03;;;4.20;90.40;;;;;;5094606;28;20364;-83
2021/01/05 08:05:16;;;;;;;26.53;12.80;;;4.20;90.70;;;;;;5079467;28;20059;-84
2021/01/05 08:07:42;;;;;;;22.10;12.10;;;4.20;90.40;;;;;;5086607;28;20094;-83
2021/01/05 08:10:09;;;;;;;23.93;13.17;;;4.20;90.40;;;;;;5078025;28;20024;-82
2021/01/05 08:12:34;;;;;;;23.47;13.10;;;4.20;90.40;;;;;;5060722;28;20383;-82
2021/01/05 08:15:00;;;;;;;25.03;12.77;;;4.20;90.30;;;;;;5077104;28;20024;-82
2021/01/05 08:17:26;;;;;;;24.43;13.77;;;4.20;90.30;;;;;;5077000;28;20174;-83
2021/01/05 08:19:51;;;;;;;23.43;13.03;;;4.30;90.40;;;;;;5093514;28;20035;-83
2021/01/05 08:22:17;;;;;;;25.13;14.13;;;4.20;90.40;;;;;;5077091;28;20028;-83
2021/01/05 08:24:43;;;;;;;22.10;12.30;;;4.20;90.30;;;;;;5077084;28;20059;-83
2021/01/05 08:27:11;;;;;;;22.23;11.80;;;4.20;90.30;;;;;;5076908;28;20035;-82
2021/01/05 08:29:37;;;;;;;21.60;12.47;;;4.20;90.40;;;;;;5093134;28;20111;-83
2021/01/05 08:32:03;;;;;;;22.23;12.23;;;4.30;90.30;;;;;;5076844;28;20035;-82
2021/01/05 08:34:29;;;;;;;23.90;14.13;;;4.30;90.40;;;;;;5076574;28;20028;-82
2021/01/05 08:36:54;;;;;;;23.43;12.83;;;4.30;90.30;;;;;;5093068;28;20027;-83
2021/01/05 08:39:20;;;;;;;26.03;13.93;;;4.30;90.20;;;;;;5085533;28;20031;-84
2021/01/05 08:41:52;;;;;;;22.27;13.37;;;4.30;90.20;;;;;;5072977;28;20384;-81
2021/01/05 08:44:17;;;;;;;24.37;14.37;;;4.30;90.20;;;;;;5056100;28;20028;-82
2021/01/05 08:46:43;;;;;;;23.67;12.47;;;4.30;90.00;;;;;;5074692;28;20024;-82
2021/01/05 08:49:09;;;;;;;21.73;12.50;;;4.30;90.10;;;;;;5077269;28;20039;-82
2021/01/05 08:51:34;;;;;;;25.80;13.40;;;4.30;90.10;;;;;;5076426;28;20454;-83
2021/01/05 08:54:00;;;;;;;22.57;13.00;;;4.30;90.10;;;;;;5060726;28;20050;-82
2021/01/05 08:56:27;;;;;;;25.43;13.63;;;4.30;90.00;;;;;;5056574;28;20476;-83
2021/01/05 08:58:53;;;;;;;25.50;13.67;;;4.30;90.00;;;;;;5093361;28;20040;-82
2021/01/05 09:01:20;;;;;;;22.17;13.00;;;4.30;89.80;;;;;;5093631;28;20369;-82
2021/01/05 09:03:46;;;;;;;23.20;12.77;;;4.30;89.80;;;;;;5093404;28;20021;-83
2021/01/05 09:06:13;;;;;;;21.53;13.40;;;4.30;89.90;;;;;;5076901;28;20111;-83
2021/01/05 09:08:39;;;;;;;24.73;13.00;;;4.30;89.80;;;;;;5093519;28;20031;-83
2021/01/05 09:11:20;;;;;;;22.67;12.40;;;4.30;89.70;;;;;;5076430;28;20024;-83
2021/01/05 09:13:46;;;;;;;22.90;14.00;;;4.30;89.70;;;;;;5077438;28;20069;-83
2021/01/05 09:16:32;;;;;;;21.53;12.87;;;4.30;89.70;;;;;;5076252;28;20380;-83
2021/01/05 09:18:59;;;;;;;22.20;12.80;;;4.30;89.70;;;;;;5059056;28;20036;-82
2021/01/05 09:21:27;;;;;;;24.27;13.20;;;4.30;89.50;;;;;;5076456;28;20480;-83
2021/01/05 09:23:58;;;;;;;20.60;12.37;;;4.30;89.60;;;;;;5092742;28;20021;-83
2021/01/05 09:26:29;;;;;;;22.87;12.27;;;4.30;89.70;;;;;;5094463;28;20091;-83
2021/01/05 09:28:55;;;;;;;20.87;12.50;;;4.30;89.80;;;;;;5093177;28;20020;-82
2021/01/05 09:31:22;;;;;;;20.23;11.83;;;4.40;89.80;;;;;;5091720;28;20067;-82
2021/01/05 09:33:48;;;;;;;19.17;10.83;;;4.40;90.00;;;;;;5076262;28;20020;-82
2021/01/05 09:36:15;;;;;;;21.30;12.50;;;4.40;89.70;;;;;;5076644;28;20021;-82
2021/01/05 09:38:41;;;;;;;22.77;13.07;;;4.50;89.50;;;;;;5075395;28;20043;-81
2021/01/05 09:41:19;;;;;;;20.80;12.60;;;4.50;89.30;;;;;;5092108;28;20020;-82
2021/01/05 09:43:44;;;;;;;20.67;11.60;;;4.50;89.60;;;;;;5088920;28;20028;-82
2021/01/05 09:46:11;;;;;;;22.10;12.23;;;4.50;89.40;;;;;;5088044;28;20421;-81
2021/01/05 09:48:37;;;;;;;18.73;11.73;;;4.50;89.40;;;;;;5095397;28;20412;-81
2021/01/05 09:51:03;;;;;;;18.83;10.77;;;4.50;89.10;;;;;;5063016;28;20036;-81
2021/01/05 09:53:29;;;;;;;19.77;10.87;;;4.50;89.10;;;;;;5096457;28;20028;-81
2021/01/05 09:55:54;;;;;;;17.03;9.63;;;4.60;88.90;;;;;;5096738;28;20055;-81
2021/01/05 09:58:20;;;;;;;19.97;11.57;;;4.60;88.60;;;;;;5062266;28;20112;-81
2021/01/05 10:00:45;;;;;;;17.17;9.93;;;4.60;88.30;;;;;;5079131;28;20106;-80
2021/01/05 10:03:11;;;;;;;18.10;10.50;;;4.60;88.50;;;;;;5096381;28;20365;-83
2021/01/05 10:05:37;;;;;;;17.17;10.13;;;4.60;88.30;;;;;;5079461;28;20082;-80
2021/01/05 10:08:03;;;;;;;18.20;10.43;;;4.60;88.20;;;;;;5061729;28;20028;-80
2021/01/05 10:10:28;;;;;;;17.33;10.10;;;4.60;88.00;;;;;;5095475;28;20036;-81
2021/01/05 10:12:54;;;;;;;13.00;8.23;;;4.50;87.80;;;;;;5078166;28;20056;-80
2021/01/05 10:15:22;;;;;;;14.37;8.83;;;4.50;88.00;;;;;;5095969;28;20028;-83
2021/01/05 10:17:48;;;;;;;14.23;8.80;;;4.50;87.90;;;;;;5083071;28;20032;-83
2021/01/05 10:20:15;;;;;;;15.70;9.00;;;4.50;88.10;;;;;;5075729;28;20024;-83
2021/01/05 10:22:41;;;;;;;14.37;9.03;;;4.60;88.00;;;;;;5094333;28;20020;-81
2021/01/05 10:25:09;;;;;;;13.60;8.30;;;4.60;87.50;;;;;;5077460;28;20165;-83
2021/01/05 10:27:35;;;;;;;13.90;8.20;;;4.60;87.30;;;;;;5094055;28;20016;-83
2021/01/05 10:30:01;;;;;;;15.47;8.20;;;4.70;87.80;;;;;;5093673;28;20020;-83
2021/01/05 10:32:26;;;;;;;13.57;7.63;;;4.60;87.10;;;;;;5040682;28;20044;-81
2021/01/05 10:34:52;;;;;;;14.53;8.50;;;4.70;87.30;;;;;;5040827;28;20464;-81
2021/01/05 10:37:19;;;;;;;13.10;7.93;;;4.70;87.20;;;;;;5074231;28;20032;-83
2021/01/05 10:39:44;;;;;;;14.83;8.83;;;4.70;87.10;;;;;;5084028;28;20058;-81
2021/01/05 10:42:10;;;;;;;14.23;9.20;;;4.70;86.90;;;;;;5057265;28;20032;-83
2021/01/05 10:44:36;;;;;;;15.57;9.10;;;4.70;86.90;;;;;;5073779;28;20365;-82
2021/01/05 10:47:05;;;;;;;13.83;8.47;;;4.70;87.00;;;;;;5073874;28;20040;-83
2021/01/05 10:49:31;;;;;;;15.80;9.03;;;4.70;87.20;;;;;;5075255;28;20028;-82
2021/01/05 10:51:58;;;;;;;14.93;8.67;;;4.70;86.90;;;;;;5079074;28;20063;-83
2021/01/05 10:54:27;;;;;;;13.93;8.90;;;4.70;86.80;;;;;;5078761;28;20455;-82
2021/01/05 10:56:57;;;;;;;15.43;8.50;;;4.70;86.80;;;;;;5067914;28;20043;-83
2021/01/05 10:59:24;;;;;;;15.80;8.60;;;4.70;87.00;;;;;;5073319;28;20020;-84
2021/01/05 11:01:50;;;;;;;14.27;8.63;;;4.70;87.20;;;;;;5068472;28;20064;-83
2021/01/05 11:04:16;;;;;;;15.43;9.33;;;4.70;87.20;;;;;;5093320;28;20495;-82
2021/01/05 11:06:52;;;;;;;14.07;8.37;;;4.80;87.20;;;;;;5093144;28;20036;-82
2021/01/05 11:09:19;;;;;;;13.53;8.30;;;4.70;87.20;;;;;;5094325;28;20230;-82
2021/01/05 11:11:44;;;;;;;14.00;8.63;;;4.80;86.90;;;;;;5093227;28;20377;-82
2021/01/05 11:14:10;;;;;;;14.27;8.87;;;4.80;86.90;;;;;;5059071;28;20028;-82
2021/01/05 11:16:36;;;;;;;13.13;7.83;;;4.80;87.10;;;;;;5088644;28;20025;-81
2021/01/05 11:19:01;;;;;;;13.13;7.77;;;4.80;87.40;;;;;;5087207;28;20472;-81
2021/01/05 11:21:27;;;;;;;12.57;8.10;;;4.80;87.50;;;;;;5065334;28;20023;-82
2021/01/05 11:23:52;;;;;;;12.93;7.67;;;4.70;87.40;;;;;;5046593;28;20139;-82
2021/01/05 11:26:18;;;;;;;14.37;8.33;;;4.80;87.40;;;;;;5072169;28;20098;-81
2021/01/05 11:28:44;;;;;;;15.00;8.70;;;4.90;87.20;;;;;;5076164;28;20024;-81
2021/01/05 11:31:09;;;;;;;14.63;8.50;;;4.80;86.90;;;;;;5092775;28;20450;-81
2021/01/05 11:33:35;;;;;;;14.60;8.70;;;4.70;86.90;;;;;;5059633;28;20020;-82
2021/01/05 11:36:00;;;;;;;15.70;8.60;;;4.90;87.00;;;;;;5093126;28;20387;-82
2021/01/05 11:38:26;;;;;;;16.40;9.00;;;4.90;87.20;;;;;;5093464;28;20115;-82
2021/01/05 11:40:52;;;;;;;15.10;9.00;;;4.80;87.00;;;;;;5076096;28;20107;-82
2021/01/05 11:43:17;;;;;;;16.30;10.53;;;4.90;87.10;;;;;;5076558;28;20416;-83
2021/01/05 11:45:44;;;;;;;18.67;9.47;;;4.90;87.00;;;;;;5094156;28;20051;-82
2021/01/05 11:48:10;;;;;;;15.00;9.40;;;4.90;87.00;;;;;;5092798;28;20075;-80
2021/01/05 11:50:35;;;;;;;19.50;9.97;;;4.90;86.90;;;;;;5059305;28;20047;-82
2021/01/05 11:53:01;;;;;;;17.47;10.20;;;4.90;86.70;;;;;;5075716;28;20028;-82
2021/01/05 11:55:27;;;;;;;16.60;10.30;;;4.90;86.70;;;;;;5076066;28;20106;-82
2021/01/05 11:57:52;;;;;;;19.00;11.77;;;4.90;87.00;;;;;;5075779;28;20124;-82
2021/01/05 12:00:20;;;;;;;17.80;10.83;;;4.90;87.00;;;;;;5058861;28;20498;-82
2021/01/05 12:02:46;;;;;;;19.63;11.27;;;4.80;87.00;;;;;;5078526;28;20051;-82
2021/01/05 12:05:13;;;;;;;18.47;11.03;;;4.90;87.20;;;;;;5055455;28;20073;-82
2021/01/05 12:07:39;;;;;;;19.37;10.73;;;4.90;87.30;;;;;;5039061;28;20029;-82
2021/01/05 12:10:06;;;;;;;23.17;12.30;;;4.90;87.30;;;;;;5067760;28;20029;-82
2021/01/05 12:12:32;;;;;;;22.93;13.60;;;4.90;87.90;;;;;;5071691;28;20082;-82
2021/01/05 12:14:57;;;;;;;22.17;13.70;;;4.90;87.40;;;;;;5055271;28;20028;-82
2021/01/05 12:17:23;;;;;;;22.33;13.27;;;4.90;87.50;;;;;;5062644;28;20020;-82
2021/01/05 12:19:49;;;;;;;22.00;12.60;;;4.90;87.60;;;;;;5092125;28;20054;-82
2021/01/05 12:22:14;;;;;;;23.33;13.70;;;4.80;87.60;;;;;;5078912;28;20081;-75
2021/01/05 12:24:44;;;;;;;24.10;14.43;;;4.80;87.70;;;;;;5096249;28;20032;-75
2021/01/05 12:27:12;;;;;;;23.87;14.67;;;4.90;87.90;;;;;;5096245;28;20031;-75
2021/01/05 12:29:41;;;;;;;26.80;14.77;;;4.80;87.80;;;;;;5095996;28;20135;-75
2021/01/05 12:32:12;;;;;;;22.17;13.90;;;4.80;87.80;;;;;;5095428;28;20023;-75
2021/01/05 12:34:43;;;;;;;24.13;13.77;;;4.80;88.00;;;;;;5079382;28;20690;-75
2021/01/05 12:37:11;;;;;;;23.67;14.17;;;4.90;88.20;;;;;;5096853;28;20024;-75
2021/01/05 12:39:38;;;;;;;24.10;13.80;;;4.80;88.30;;;;;;5095878;28;20376;-75
2021/01/05 12:42:15;;;;;;;23.27;13.93;;;4.80;88.20;;;;;;5096187;28;20020;-75
2021/01/05 12:44:41;;;;;;;25.20;14.60;;;4.80;88.20;;;;;;5097080;28;20468;-75
2021/01/05 12:47:07;;;;;;;24.33;14.93;;;4.80;88.30;;;;;;5061981;28;20081;-75
2021/01/05 12:49:32;;;;;;;26.13;14.87;;;4.90;88.40;;;;;;5078791;28;20032;-75
2021/01/05 12:52:08;;;;;;;23.87;14.33;;;4.80;88.20;;;;;;5061918;28;20127;-76
2021/01/05 12:54:34;;;;;;;24.17;14.33;;;4.80;88.10;;;;;;5095564;28;20035;-75
2021/01/05 12:57:01;;;;;;;20.80;12.60;;;4.80;88.00;;;;;;5095546;28;20029;-75
2021/01/05 12:59:27;;;;;;;22.40;13.57;;;4.80;88.20;;;;;;5095572;28;20020;-75